Time;durP1;ratioP1;P1;durP2;ratioP2;P2;SDS_P1;SDS_P2;PMS_P1;PMS_P2;Temp;Humidity;BMP_temperature;BMP_pressure;BME280_temperature;BME280_humidity;BME280_pressure;Samples;Min_cycle;Max_cycle;Signal;HPM_P1;HPM_P2
2022/06/27 00:02:23;;;;;;;3.67;2.47;;;;;;;21.32;58.81;101167.25;5029691;28;20098;-75
2022/06/27 00:04:49;;;;;;;6.03;2.90;;;;;;;21.13;59.40;101165.44;5028148;28;20049;-74
2022/06/27 00:07:15;;;;;;;5.45;2.65;;;;;;;20.98;59.91;101167.59;5033974;28;20025;-75
2022/06/27 00:09:40;;;;;;;5.35;2.70;;;;;;;21.07;59.91;101177.31;5047808;28;20020;-75
2022/06/27 00:12:07;;;;;;;6.47;2.70;;;;;;;21.07;59.59;101169.06;5044897;28;20104;-75
2022/06/27 00:14:33;;;;;;;3.13;2.60;;;;;;;21.01;60.56;101173.53;5026549;28;20025;-75
2022/06/27 00:16:58;;;;;;;5.13;3.10;;;;;;;21.18;59.63;101159.22;5028521;28;20043;-75
2022/06/27 00:19:24;;;;;;;4.72;2.75;;;;;;;21.21;59.76;101145.88;5021411;28;20025;-75
2022/06/27 00:21:49;;;;;;;4.78;2.78;;;;;;;21.10;60.10;101154.84;5019589;28;20028;-75
2022/06/27 00:24:15;;;;;;;9.40;3.35;;;;;;;21.04;60.20;101155.72;5042196;28;20116;-75
2022/06/27 00:26:40;;;;;;;6.28;3.08;;;;;;;20.91;60.79;101161.28;5027714;28;20020;-74
2022/06/27 00:29:06;;;;;;;9.25;3.08;;;;;;;20.74;61.10;101156.31;5044784;28;20496;-74
2022/06/27 00:31:31;;;;;;;6.95;2.80;;;;;;;20.84;61.27;101156.66;5018141;28;20028;-75
2022/06/27 00:33:56;;;;;;;4.60;2.70;;;;;;;20.89;60.92;101163.44;5023554;28;20028;-74
2022/06/27 00:36:22;;;;;;;5.55;2.67;;;;;;;20.81;61.49;101162.63;5039516;28;20017;-75
2022/06/27 00:38:47;;;;;;;5.15;3.28;;;;;;;20.72;61.69;101158.41;5030400;28;20089;-75
2022/06/27 00:41:13;;;;;;;3.45;2.58;;;;;;;20.83;61.29;101149.47;5023390;28;20021;-75
2022/06/27 00:43:43;;;;;;;10.98;3.05;;;;;;;20.81;61.54;101139.75;5040715;28;20037;-74
2022/06/27 00:46:08;;;;;;;7.72;3.25;;;;;;;20.78;61.49;101138.28;5021070;28;20053;-75
2022/06/27 00:48:34;;;;;;;4.53;2.90;;;;;;;20.79;61.54;101148.22;5016191;28;20051;-75
2022/06/27 00:51:00;;;;;;;5.20;2.47;;;;;;;20.82;61.63;101142.28;5027265;28;20025;-74
2022/06/27 00:53:25;;;;;;;5.03;3.13;;;;;;;20.76;61.96;101136.81;5032139;28;20024;-75
2022/06/27 00:55:51;;;;;;;5.80;2.70;;;;;;;20.73;62.08;101132.56;5051819;28;20024;-76
2022/06/27 00:58:17;;;;;;;7.00;3.10;;;;;;;20.80;61.86;101149.06;5028468;28;20095;-74
2022/06/27 01:00:42;;;;;;;5.53;2.67;;;;;;;20.77;62.11;101150.34;5034330;28;20017;-75
2022/06/27 01:03:07;;;;;;;6.80;3.03;;;;;;;20.70;62.59;101154.19;5024253;28;20035;-75
2022/06/27 01:05:33;;;;;;;6.80;2.95;;;;;;;21.01;61.50;101145.16;5032942;28;20021;-75
2022/06/27 01:07:58;;;;;;;3.17;2.22;;;;;;;20.96;61.61;101154.06;5059477;28;20108;-75
2022/06/27 01:10:24;;;;;;;8.35;3.45;;;;;;;20.82;62.16;101147.78;5016037;28;20029;-75
2022/06/27 01:12:49;;;;;;;5.05;2.53;;;;;;;21.03;61.75;101148.53;5025656;28;20037;-75
2022/06/27 01:15:15;;;;;;;6.32;3.20;;;;;;;20.88;62.34;101128.72;5014972;28;20057;-75
2022/06/27 01:17:40;;;;;;;6.05;3.08;;;;;;;20.84;62.43;101140.16;5034503;28;20024;-75
2022/06/27 01:20:07;;;;;;;6.22;3.30;;;;;;;20.86;62.54;101146.31;5037383;28;20021;-75
2022/06/27 01:22:32;;;;;;;5.63;3.00;;;;;;;20.88;62.65;101156.25;5034156;28;20017;-75
2022/06/27 01:24:57;;;;;;;6.20;3.80;;;;;;;21.00;62.23;101154.50;5042001;28;20025;-74
2022/06/27 01:27:23;;;;;;;4.05;2.58;;;;;;;21.18;61.84;101146.31;5033905;28;20086;-75
2022/06/27 01:29:48;;;;;;;4.60;2.75;;;;;;;20.98;62.50;101140.06;5022465;28;20102;-75
2022/06/27 01:32:14;;;;;;;5.25;2.65;;;;;;;21.00;62.50;101143.47;5030567;28;20378;-74
2022/06/27 01:34:39;;;;;;;5.10;3.30;;;;;;;21.12;62.01;101141.69;5030348;28;20017;-74
2022/06/27 01:37:05;;;;;;;6.45;2.92;;;;;;;21.06;62.24;101148.06;5047907;28;20096;-74
2022/06/27 01:39:31;;;;;;;6.85;3.45;;;;;;;20.97;62.77;101164.00;5029402;28;20039;-74
2022/06/27 01:41:58;;;;;;;8.43;3.40;;;;;;;20.76;63.57;101220.22;5036085;28;20084;-74
2022/06/27 01:44:29;;;;;;;10.57;3.42;;;;;;;20.36;65.10;101284.63;5038871;28;20066;-74
2022/06/27 01:47:08;;;;;;;6.03;3.15;;;;;;;20.08;65.94;101293.91;5034404;28;20031;-74
2022/06/27 01:49:35;;;;;;;8.45;3.00;;;;;;;19.88;66.08;101287.53;5037502;28;20124;-74
2022/06/27 01:52:01;;;;;;;7.13;3.42;;;;;;;20.19;64.95;101246.53;5026862;28;20018;-74
2022/06/27 01:54:28;;;;;;;6.93;3.28;;;;;;;20.39;63.64;101212.66;5026712;28;20029;-74
2022/06/27 01:56:53;;;;;;;5.47;3.42;;;;;;;20.56;63.23;101241.44;5044749;28;20025;-74
2022/06/27 01:59:21;;;;;;;5.20;3.35;;;;;;;20.02;64.81;101256.28;5025874;28;20048;-74
2022/06/27 02:01:46;;;;;;;7.97;3.97;;;;;;;20.00;64.63;101263.88;5017945;28;20048;-74
2022/06/27 02:04:13;;;;;;;5.03;3.35;;;;;;;20.00;64.49;101252.88;5042520;28;20037;-74
2022/06/27 02:06:40;;;;;;;7.85;3.70;;;;;;;20.15;63.52;101217.78;5026216;28;20014;-75
2022/06/27 02:09:08;;;;;;;6.97;3.50;;;;;;;20.22;63.06;101213.13;5028275;28;20095;-74
2022/06/27 02:11:34;;;;;;;6.20;3.42;;;;;;;20.23;62.77;101231.31;5042346;28;20470;-74
2022/06/27 02:14:00;;;;;;;8.00;3.95;;;;;;;19.87;63.95;101236.38;5037949;28;20017;-74
2022/06/27 02:16:28;;;;;;;6.00;3.10;;;;;;;20.03;63.41;101244.22;5056565;28;20027;-75
2022/06/27 02:18:53;;;;;;;4.47;3.08;;;;;;;20.10;62.81;101231.31;5048288;28;20511;-75
2022/06/27 02:21:21;;;;;;;6.65;3.45;;;;;;;20.12;62.81;101223.69;5036325;23;20052;-71
2022/06/27 02:23:48;;;;;;;6.10;3.00;;;;;;;20.27;62.61;101227.06;5030721;28;20021;-71
2022/06/27 02:26:14;;;;;;;6.93;2.53;;;;;;;20.37;62.07;101231.28;5031015;28;20021;-71
2022/06/27 02:28:41;;;;;;;6.45;3.03;;;;;;;20.22;62.48;101235.13;5032395;28;20024;-71
2022/06/27 02:31:08;;;;;;;7.03;2.78;;;;;;;20.22;62.51;101229.63;5027847;28;20047;-71
2022/06/27 02:33:43;;;;;;;5.85;3.20;;;;;;;20.12;62.75;101223.69;5028935;28;20079;-70
2022/06/27 02:36:13;;;;;;;8.77;3.17;;;;;;;20.15;62.74;101228.78;5049376;28;20032;-71
2022/06/27 02:38:41;;;;;;;8.80;3.00;;;;;;;19.98;63.41;101227.50;5031744;28;20417;-71
2022/06/27 02:41:11;;;;;;;4.75;3.03;;;;;;;19.88;63.97;101221.59;5030901;28;20457;-71
2022/06/27 02:43:39;;;;;;;5.82;2.80;;;;;;;19.74;64.20;101205.09;5030730;28;20025;-70
2022/06/27 02:46:05;;;;;;;6.35;3.00;;;;;;;19.85;63.99;101200.88;5031850;28;20021;-71
2022/06/27 02:48:32;;;;;;;7.57;3.15;;;;;;;19.64;64.76;101203.84;5031069;28;20488;-72
2022/06/27 02:51:05;;;;;;;8.30;2.85;;;;;;;19.58;64.80;101193.69;5030446;28;20056;-71
2022/06/27 02:53:40;;;;;;;6.38;2.55;;;;;;;19.67;64.56;101198.75;5031613;28;20041;-71
2022/06/27 02:56:09;;;;;;;9.90;2.50;;;;;;;19.91;63.68;101199.19;5031808;28;20021;-71
2022/06/27 02:58:49;;;;;;;3.47;2.17;;;;;;;19.66;64.42;101193.47;5030456;28;20120;-71
2022/06/27 03:01:18;;;;;;;5.55;2.30;;;;;;;19.59;64.89;101185.22;5030600;28;20028;-71
2022/06/27 03:03:46;;;;;;;8.02;3.08;;;;;;;19.54;64.63;101193.22;5030132;28;20044;-70
2022/06/27 03:06:11;;;;;;;7.80;2.88;;;;;;;19.64;64.71;101192.84;5030961;28;20028;-70
2022/06/27 03:08:46;;;;;;;6.15;2.90;;;;;;;19.73;64.41;101191.56;5030677;28;20017;-72
2022/06/27 03:11:20;;;;;;;6.50;2.58;;;;;;;19.68;64.47;101189.44;5029748;28;20025;-71
2022/06/27 03:13:46;;;;;;;10.38;2.85;;;;;;;19.75;64.19;101190.28;5047277;28;20032;-72
2022/06/27 03:16:13;;;;;;;5.00;2.15;;;;;;;19.64;64.57;101193.69;5030825;28;20028;-71
2022/06/27 03:18:39;;;;;;;5.47;2.70;;;;;;;19.59;64.59;101198.97;5030441;28;20024;-71
2022/06/27 03:21:04;;;;;;;5.72;2.60;;;;;;;19.42;64.84;101200.38;5029620;28;20029;-71
2022/06/27 03:23:30;;;;;;;7.90;3.38;;;;;;;19.25;65.83;101206.25;5031443;28;20056;-71
2022/06/27 03:25:56;;;;;;;10.73;3.10;;;;;;;19.13;66.06;101218.06;5030053;28;20480;-71
2022/06/27 03:28:22;;;;;;;5.63;2.85;;;;;;;19.07;66.15;101236.19;5030572;28;20086;-70
2022/06/27 03:30:48;;;;;;;7.22;2.85;;;;;;;18.92;66.71;101232.75;5029870;28;20028;-71
2022/06/27 03:33:14;;;;;;;6.22;2.90;;;;;;;19.13;66.15;101229.88;5029736;28;20500;-70
2022/06/27 03:35:41;;;;;;;10.50;2.55;;;;;;;19.17;65.89;101219.31;5030568;28;20061;-71
2022/06/27 03:38:06;;;;;;;7.05;3.00;;;;;;;19.17;66.01;101241.28;5029768;28;20151;-72
2022/06/27 03:40:32;;;;;;;6.60;3.13;;;;;;;18.61;67.66;101286.16;5029640;28;20137;-71
2022/06/27 03:42:57;;;;;;;12.55;3.63;;;;;;;18.29;69.55;101322.38;5030626;28;20017;-72
2022/06/27 03:45:23;;;;;;;11.05;3.70;;;;;;;18.25;70.07;101318.34;5029590;28;20108;-73
2022/06/27 03:47:50;;;;;;;7.28;4.15;;;;;;;18.26;70.71;101281.69;5035546;28;20021;-74
2022/06/27 03:50:20;;;;;;;7.22;3.47;;;;;;;17.74;73.39;101272.78;5046270;28;20488;-74
2022/06/27 03:52:46;;;;;;;7.93;3.85;;;;;;;17.61;73.95;101254.31;5045613;28;20025;-72
2022/06/27 03:55:12;;;;;;;10.23;4.50;;;;;;;17.61;74.20;101250.72;5048115;28;20027;-72
2022/06/27 03:57:45;;;;;;;7.75;3.88;;;;;;;17.59;75.87;101231.72;5046485;28;20016;-73
2022/06/27 04:00:11;;;;;;;16.48;5.25;;;;;;;17.48;76.68;101229.53;5046183;28;20404;-75
2022/06/27 04:02:36;;;;;;;11.18;4.78;;;;;;;17.47;77.09;101211.38;5034201;28;20021;-74
2022/06/27 04:05:02;;;;;;;13.43;5.18;;;;;;;17.44;78.13;101200.81;5022371;28;20021;-75
2022/06/27 04:07:28;;;;;;;13.68;4.22;;;;;;;17.39;77.31;101197.81;5041420;28;20055;-75
2022/06/27 04:09:54;;;;;;;10.52;4.15;;;;;;;17.44;77.57;101200.81;5047301;28;20081;-75
2022/06/27 04:12:20;;;;;;;13.15;4.53;;;;;;;17.33;77.06;101204.06;5045675;28;20025;-73
2022/06/27 04:14:45;;;;;;;13.45;4.85;;;;;;;17.49;78.12;101203.00;5034389;28;20024;-73
2022/06/27 04:17:10;;;;;;;19.08;5.57;;;;;;;17.59;77.92;101220.75;5021796;28;20107;-73
2022/06/27 04:19:36;;;;;;;15.05;4.45;;;;;;;17.64;77.76;101190.06;5031621;28;20025;-74
2022/06/27 04:22:01;;;;;;;15.82;6.10;;;;;;;17.51;79.54;101185.31;5035525;28;20064;-72
2022/06/27 04:24:27;;;;;;;17.05;5.95;;;;;;;17.57;78.31;101195.47;5045631;28;20020;-70
2022/06/27 04:26:52;;;;;;;17.38;6.03;;;;;;;17.73;78.85;101185.31;5029066;28;20113;-70
2022/06/27 04:29:17;;;;;;;13.70;5.80;;;;;;;17.78;79.37;101188.31;5028023;28;20025;-71
2022/06/27 04:31:43;;;;;;;10.80;4.72;;;;;;;17.70;78.79;101188.44;5025820;28;20021;-70
2022/06/27 04:34:12;;;;;;;12.10;5.30;;;;;;;17.86;78.09;101182.69;5029936;28;20028;-71
2022/06/27 04:36:37;;;;;;;10.85;4.40;;;;;;;17.85;77.74;101179.09;5028840;28;20056;-71
2022/06/27 04:39:03;;;;;;;7.57;5.00;;;;;;;17.72;78.07;101164.47;5028121;28;20048;-72
2022/06/27 04:41:29;;;;;;;9.55;4.85;;;;;;;17.65;78.90;101142.47;5026105;28;20624;-72
2022/06/27 04:43:55;;;;;;;13.40;5.68;;;;;;;17.40;79.89;101106.44;5020231;28;20021;-71
2022/06/27 04:46:21;;;;;;;8.93;5.72;;;;;;;17.25;80.63;101086.53;5036349;28;20488;-71
2022/06/27 04:48:48;;;;;;;15.07;6.22;;;;;;;17.45;80.73;101098.50;5028621;28;20017;-72
2022/06/27 04:51:14;;;;;;;15.13;6.68;;;;;;;17.75;80.14;101114.78;5023441;28;20486;-71
2022/06/27 04:53:40;;;;;;;11.38;5.32;;;;;;;17.78;79.45;101108.88;5020957;28;20025;-72
2022/06/27 04:56:06;;;;;;;16.83;5.28;;;;;;;17.95;78.17;101126.72;5027002;28;20033;-72
2022/06/27 04:58:32;;;;;;;10.40;6.25;;;;;;;17.98;78.64;101123.56;5019230;28;20025;-72
2022/06/27 05:00:57;;;;;;;17.80;5.95;;;;;;;17.87;78.55;101129.63;5019915;28;20021;-73
2022/06/27 05:03:23;;;;;;;12.48;5.80;;;;;;;18.02;78.93;101127.59;5027098;28;20035;-73
2022/06/27 05:05:50;;;;;;;10.50;5.95;;;;;;;18.13;78.93;101128.94;5023434;28;20025;-73
2022/06/27 05:08:16;;;;;;;10.77;5.68;;;;;;;18.04;79.18;101114.53;5022238;28;20084;-73
2022/06/27 05:10:42;;;;;;;10.25;6.05;;;;;;;18.10;78.86;101124.69;5045043;28;20025;-73
2022/06/27 05:13:08;;;;;;;14.02;5.80;;;;;;;18.28;79.18;101126.91;5027674;28;20033;-73
2022/06/27 05:15:33;;;;;;;10.05;6.45;;;;;;;18.29;78.87;101119.53;5026604;28;20044;-73
2022/06/27 05:17:58;;;;;;;9.13;5.80;;;;;;;18.47;78.25;101119.00;5034468;28;20033;-71
2022/06/27 05:20:24;;;;;;;30.63;6.55;;;;;;;18.51;79.01;101120.25;5025695;28;20025;-73
2022/06/27 05:22:49;;;;;;;17.25;6.28;;;;;;;18.59;78.29;101118.22;5038033;28;20028;-72
2022/06/27 05:25:15;;;;;;;13.60;6.43;;;;;;;18.65;78.92;101122.88;5045248;28;20024;-72
2022/06/27 05:27:41;;;;;;;10.30;6.30;;;;;;;18.66;77.88;101137.44;5030635;28;20033;-74
2022/06/27 05:30:07;;;;;;;18.90;6.70;;;;;;;18.74;77.87;101152.91;5040584;28;20112;-72
2022/06/27 05:32:32;;;;;;;10.43;5.53;;;;;;;18.84;76.59;101147.84;5034740;28;20032;-73
2022/06/27 05:34:58;;;;;;;11.18;5.95;;;;;;;18.93;76.93;101146.63;5016148;28;20088;-74
2022/06/27 05:37:24;;;;;;;9.63;6.18;;;;;;;18.87;76.89;101156.53;5029747;28;20051;-76
2022/06/27 05:39:49;;;;;;;11.57;5.75;;;;;;;19.03;77.04;101147.06;5029919;28;20029;-75
2022/06/27 05:42:15;;;;;;;12.82;6.13;;;;;;;19.03;76.63;101147.06;5035008;28;20488;-76
2022/06/27 05:44:40;;;;;;;12.60;6.05;;;;;;;19.20;76.25;101148.38;5025980;28;20031;-75
2022/06/27 05:47:06;;;;;;;11.75;5.80;;;;;;;19.47;75.42;101153.91;5030718;28;20017;-74
2022/06/27 05:49:31;;;;;;;12.02;5.05;;;;;;;19.31;75.91;101148.84;5028007;28;20018;-72
2022/06/27 05:51:57;;;;;;;10.50;6.78;;;;;;;19.16;76.61;101136.13;5031703;28;20028;-72
2022/06/27 05:54:24;;;;;;;15.95;7.03;;;;;;;19.09;75.78;101124.28;5035116;28;20048;-71
2022/06/27 05:56:50;;;;;;;13.23;6.10;;;;;;;19.24;75.93;101122.22;5031250;28;20037;-73
2022/06/27 05:59:17;;;;;;;10.07;5.97;;;;;;;19.45;76.43;101123.06;5029735;28;20114;-73
2022/06/27 06:01:45;;;;;;;9.20;5.50;;;;;;;19.54;75.23;101116.31;5023022;28;20026;-73
2022/06/27 06:04:10;;;;;;;14.02;6.10;;;;;;;19.38;75.33;101116.75;5024119;28;20021;-73
2022/06/27 06:06:36;;;;;;;12.30;6.22;;;;;;;19.44;77.07;101103.00;5024844;28;20037;-73
2022/06/27 06:09:03;;;;;;;6.95;5.00;;;;;;;19.81;75.72;101110.81;5040052;28;20029;-73
2022/06/27 06:11:30;;;;;;;8.45;5.57;;;;;;;19.83;76.09;101115.06;5040389;28;20075;-74
2022/06/27 06:13:56;;;;;;;12.93;6.07;;;;;;;19.85;75.32;101106.59;5045152;28;20036;-75
2022/06/27 06:16:22;;;;;;;10.32;5.07;;;;;;;19.89;74.65;101097.72;5023224;28;20447;-75
2022/06/27 06:18:52;;;;;;;10.65;5.40;;;;;;;19.89;74.84;101091.38;5043086;28;20674;-75
2022/06/27 06:21:18;;;;;;;11.43;5.80;;;;;;;19.90;74.42;101098.56;5030131;28;20503;-75
2022/06/27 06:23:44;;;;;;;9.48;6.28;;;;;;;19.62;75.53;101085.91;5032055;28;20040;-73
2022/06/27 06:26:09;;;;;;;14.90;6.25;;;;;;;19.95;75.43;101090.50;5030816;28;20024;-74
2022/06/27 06:28:35;;;;;;;14.52;5.93;;;;;;;20.06;74.36;101073.34;5034267;28;20020;-72
2022/06/27 06:31:01;;;;;;;9.48;6.45;;;;;;;20.19;74.42;101070.56;5027961;28;20018;-71
2022/06/27 06:33:26;;;;;;;15.90;6.80;;;;;;;20.22;75.06;101064.66;5026229;28;20024;-72
2022/06/27 06:35:52;;;;;;;11.73;6.05;;;;;;;20.21;75.01;101068.47;5031233;28;20028;-72
2022/06/27 06:38:18;;;;;;;14.35;6.40;;;;;;;20.24;73.43;101068.00;5029716;28;20019;-72
2022/06/27 06:40:43;;;;;;;8.73;5.53;;;;;;;20.26;74.06;101071.38;5042763;28;20029;-72
2022/06/27 06:43:09;;;;;;;11.90;5.90;;;;;;;20.39;73.20;101069.63;5030152;28;20029;-75
2022/06/27 06:45:34;;;;;;;11.52;5.78;;;;;;;20.58;73.21;101079.75;5026538;28;20033;-72
2022/06/27 06:48:00;;;;;;;10.38;6.18;;;;;;;20.64;72.59;101067.88;5029948;28;20471;-72
2022/06/27 06:50:26;;;;;;;17.50;7.53;;;;;;;20.75;72.85;101075.44;5034886;28;20028;-72
2022/06/27 06:52:52;;;;;;;19.42;9.57;;;;;;;20.82;71.97;101073.47;5031376;28;20067;-73
2022/06/27 06:55:21;;;;;;;12.77;6.85;;;;;;;21.02;71.97;101087.13;5028119;28;20029;-72
2022/06/27 06:57:47;;;;;;;12.18;6.78;;;;;;;21.05;70.96;101085.81;5040146;28;20034;-72
2022/06/27 07:00:13;;;;;;;11.43;6.80;;;;;;;21.05;70.01;101080.31;5014975;28;20009;-73
2022/06/27 07:02:38;;;;;;;9.82;6.35;;;;;;;21.10;71.17;101083.25;5033099;28;20021;-72
2022/06/27 07:05:08;;;;;;;10.32;6.80;;;;;;;21.28;70.23;101086.13;5019163;28;20025;-74
2022/06/27 07:07:34;;;;;;;11.20;6.47;;;;;;;21.44;70.04;101089.38;5023396;28;20022;-72
2022/06/27 07:10:00;;;;;;;11.85;7.05;;;;;;;21.42;69.33;101092.34;5025398;28;20036;-72
2022/06/27 07:12:26;;;;;;;17.75;6.72;;;;;;;21.43;69.42;101088.53;5040601;28;20048;-73
2022/06/27 07:14:54;;;;;;;11.25;6.60;;;;;;;21.28;70.46;101086.13;5026652;28;20017;-72
2022/06/27 07:17:24;;;;;;;10.57;6.50;;;;;;;21.24;70.76;101098.59;5023849;28;20027;-72
2022/06/27 07:19:52;;;;;;;10.73;7.07;;;;;;;21.04;72.04;101106.16;5023732;28;20060;-73
2022/06/27 07:22:18;;;;;;;19.70;8.18;;;;;;;21.07;71.87;101122.25;5026414;28;20017;-74
2022/06/27 07:24:44;;;;;;;12.07;7.82;;;;;;;20.70;72.74;101149.53;5023455;28;20017;-72
2022/06/27 07:27:09;;;;;;;17.83;8.80;;;;;;;20.46;74.10;101164.00;5032809;28;21082;-72
2022/06/27 07:29:35;;;;;;;10.98;8.52;;;;;;;20.38;73.93;101166.97;5041484;28;20090;-74
2022/06/27 07:32:01;;;;;;;12.57;8.00;;;;;;;20.48;74.75;101160.00;5029531;28;20024;-72
2022/06/27 07:34:27;;;;;;;17.88;9.70;;;;;;;20.06;75.07;101153.06;5020621;28;20033;-72
2022/06/27 07:36:52;;;;;;;15.00;9.38;;;;;;;20.43;74.63;101169.91;5016076;28;20145;-71
2022/06/27 07:39:18;;;;;;;16.70;10.57;;;;;;;20.09;76.25;101180.16;5031434;28;20017;-73
2022/06/27 07:41:44;;;;;;;15.30;9.68;;;;;;;20.32;75.21;101169.50;5042193;28;20040;-71
2022/06/27 07:44:10;;;;;;;19.58;11.35;;;;;;;19.90;75.34;101165.38;5030180;28;20225;-71
2022/06/27 07:46:35;;;;;;;16.63;10.77;;;;;;;19.73;76.18;101175.94;5025938;28;20025;-74
2022/06/27 07:49:01;;;;;;;20.85;11.02;;;;;;;19.96;75.98;101164.50;5038378;28;20466;-72
2022/06/27 07:51:27;;;;;;;20.00;11.32;;;;;;;20.07;76.18;101171.25;5030095;28;20121;-73
2022/06/27 07:53:52;;;;;;;18.95;12.50;;;;;;;20.05;75.88;101178.88;5031663;28;20048;-71
2022/06/27 07:56:20;;;;;;;17.38;10.27;;;;;;;20.36;75.07;101175.44;5022920;28;20044;-71
2022/06/27 07:58:48;;;;;;;22.67;12.27;;;;;;;20.35;74.57;101161.91;5024347;28;20112;-73
2022/06/27 08:01:15;;;;;;;16.75;12.07;;;;;;;20.05;75.95;101145.88;5022636;28;20052;-71
2022/06/27 08:03:44;;;;;;;19.67;13.05;;;;;;;20.02;75.85;101149.09;5019290;28;20076;-71
2022/06/27 08:06:15;;;;;;;22.52;12.30;;;;;;;19.91;76.33;101149.72;5024547;28;20032;-73
2022/06/27 08:08:45;;;;;;;;;;;;;;;20.04;75.64;101149.69;5041575;28;20032;-72
2022/06/27 08:11:17;;;;;;;22.73;13.77;;;;;;;19.79;76.26;101147.59;5035209;28;19912;-72
2022/06/27 08:13:44;;;;;;;;;;;;;;;19.93;76.19;101147.59;5021584;28;20086;-72
2022/06/27 08:16:12;;;;;;;21.90;14.55;;;;;;;19.99;74.34;101135.75;5030717;28;19916;-73
2022/06/27 08:18:39;;;;;;;16.17;12.77;;;;;;;20.00;74.54;101137.44;5041362;28;20100;-72
2022/06/27 08:21:05;;;;;;;26.48;13.80;;;;;;;19.92;74.34;101134.91;5013679;28;20045;-72
2022/06/27 08:23:31;;;;;;;24.20;15.25;;;;;;;19.92;75.29;101137.66;5021201;28;20055;-74
2022/06/27 08:25:57;;;;;;;22.02;14.27;;;;;;;20.21;74.41;101156.44;5039569;28;20043;-74
2022/06/27 08:28:25;;;;;;;23.40;12.65;;;;;;;20.47;73.19;101154.69;5022771;28;20051;-74
2022/06/27 08:30:52;;;;;;;20.55;13.60;;;;;;;20.43;73.05;101150.66;5033479;28;20028;-71
2022/06/27 08:33:18;;;;;;;27.92;14.60;;;;;;;20.29;73.98;101158.13;5021184;28;20018;-71
2022/06/27 08:35:47;;;;;;;31.70;16.13;;;;;;;19.94;74.96;101165.78;5028700;28;20025;-72
2022/06/27 08:38:15;;;;;;;23.65;15.27;;;;;;;20.17;73.88;101160.69;5027958;28;20024;-73
2022/06/27 08:40:53;;;;;;;22.90;14.35;;;;;;;20.31;73.71;101167.84;5028220;28;20059;-73
2022/06/27 08:43:18;;;;;;;26.85;16.08;;;;;;;19.63;74.80;101170.03;5020886;28;20113;-71
2022/06/27 08:45:48;;;;;;;26.67;15.90;;;;;;;19.39;75.89;101168.69;5022752;28;20108;-74
2022/06/27 08:48:14;;;;;;;28.77;16.30;;;;;;;19.45;75.35;101167.00;5020219;28;20025;-72
2022/06/27 08:50:41;;;;;;;23.63;15.23;;;;;;;19.67;74.94;101165.78;5017908;28;20021;-71
2022/06/27 08:53:07;;;;;;;19.83;14.57;;;;;;;19.73;74.93;101170.44;5026010;28;20166;-72
2022/06/27 08:55:33;;;;;;;27.17;15.95;;;;;;;19.84;74.05;101177.22;5032391;28;20055;-72
2022/06/27 08:58:02;;;;;;;28.13;14.68;;;;;;;19.82;74.83;101189.44;5038255;28;20057;-71
2022/06/27 09:00:27;;;;;;;26.85;18.08;;;;;;;19.59;74.70;101190.72;5022731;28;20041;-74
2022/06/27 09:02:53;;;;;;;24.95;16.15;;;;;;;19.70;75.03;101181.84;5023658;28;20498;-72
2022/06/27 09:05:21;;;;;;;40.83;20.65;;;;;;;19.58;74.84;101178.03;5021382;28;20072;-72
2022/06/27 09:07:55;;;;;;;35.22;20.45;;;;;;;19.52;74.85;101170.59;5028670;28;20021;-74
2022/06/27 09:10:30;;;;;;;26.38;17.15;;;;;;;19.99;73.63;101157.72;5035801;28;20069;-73
2022/06/27 09:13:01;;;;;;;27.70;18.63;;;;;;;20.10;72.87;101153.50;5030222;28;20111;-72
2022/06/27 09:15:44;;;;;;;28.27;17.33;;;;;;;19.99;73.47;101149.50;5031802;28;20021;-71
2022/06/27 09:18:10;;;;;;;31.98;18.83;;;;;;;19.95;73.36;101157.34;5033215;28;20029;-74
2022/06/27 09:21:09;;;;;;;27.50;17.20;;;;;;;20.04;73.99;101160.69;5037084;28;20031;-72
2022/06/27 09:23:43;;;;;;;29.80;16.52;;;;;;;20.40;72.16;101159.34;5021585;28;20021;-72
2022/06/27 09:26:15;;;;;;;24.73;16.10;;;;;;;20.15;73.07;101156.44;5026470;28;20033;-73
2022/06/27 09:28:46;;;;;;;22.52;16.15;;;;;;;20.13;73.35;101137.41;5030636;28;20132;-72
2022/06/27 09:31:25;;;;;;;33.97;17.20;;;;;;;20.26;73.03;101142.88;5025106;28;20021;-72
2022/06/27 09:34:05;;;;;;;31.20;15.35;;;;;;;20.63;72.19;101154.22;5030173;28;20082;-72
2022/06/27 09:36:32;;;;;;;25.75;15.68;;;;;;;20.75;71.20;101163.50;5024920;28;20026;-72
2022/06/27 09:38:59;;;;;;;27.70;16.70;;;;;;;20.72;71.36;101180.41;5029888;28;20436;-73
2022/06/27 09:41:29;;;;;;;28.35;15.52;;;;;;;20.57;71.62;101188.09;5043108;28;20009;-73
2022/06/27 09:44:00;;;;;;;26.10;15.48;;;;;;;20.58;71.74;101195.28;5038666;28;20041;-73
2022/06/27 09:46:27;;;;;;;35.38;17.88;;;;;;;20.34;72.85;101188.53;5029125;28;20013;-72
2022/06/27 09:48:54;;;;;;;41.13;21.70;;;;;;;19.68;74.71;101172.97;5021700;28;20041;-74
2022/06/27 09:51:20;;;;;;;31.63;19.50;;;;;;;19.83;74.89;101159.03;5042989;28;20024;-74
2022/06/27 09:53:47;;;;;;;25.17;15.32;;;;;;;20.60;72.76;101149.13;5021386;28;20026;-73
2022/06/27 09:56:14;;;;;;;27.08;18.45;;;;;;;20.81;71.13;101151.63;5031613;28;20029;-72
2022/06/27 09:58:41;;;;;;;38.97;17.90;;;;;;;21.13;69.46;101148.91;5036893;28;20032;-74
2022/06/27 10:01:08;;;;;;;30.48;17.98;;;;;;;21.19;69.82;101161.78;5024418;28;20025;-74
2022/06/27 10:03:35;;;;;;;26.13;16.60;;;;;;;21.06;69.99;101159.09;5022239;28;20090;-73
2022/06/27 10:06:01;;;;;;;43.47;16.73;;;;;;;21.80;67.99;101155.63;5028332;28;20033;-73
2022/06/27 10:08:27;;;;;;;28.55;15.93;;;;;;;22.02;66.92;101160.72;5029233;28;20025;-74
2022/06/27 10:11:08;;;;;;;28.40;17.38;;;;;;;21.47;67.80;101171.59;5027325;28;20057;-73
2022/06/27 10:13:36;;;;;;;28.92;18.83;;;;;;;21.02;70.44;101174.38;5024781;28;20060;-73
2022/06/27 10:16:21;;;;;;;28.15;20.02;;;;;;;20.78;70.68;101167.69;5025609;28;20025;-73
2022/06/27 10:18:56;;;;;;;27.63;18.15;;;;;;;21.08;69.71;101162.47;5027699;28;20036;-74
2022/06/27 10:21:36;;;;;;;35.20;23.80;;;;;;;20.58;70.94;101181.53;5029058;28;20048;-73
2022/06/27 10:24:23;;;;;;;29.92;19.77;;;;;;;20.31;72.01;101184.34;5038464;28;20048;-73
2022/06/27 10:26:51;;;;;;;32.47;21.35;;;;;;;20.43;72.35;101175.44;5030118;28;20102;-73
2022/06/27 10:29:45;;;;;;;38.00;25.02;;;;;;;20.38;71.72;101177.97;5023685;28;20025;-73
2022/06/27 10:32:40;;;;;;;33.80;23.33;;;;;;;20.26;72.46;101175.03;5020244;28;20026;-73
2022/06/27 10:35:07;;;;;;;33.42;20.25;;;;;;;20.83;70.52;101171.50;5014235;28;20044;-73
2022/06/27 10:37:34;;;;;;;30.10;22.08;;;;;;;20.88;70.27;101167.25;5025911;28;20078;-75
2022/06/27 10:40:18;;;;;;;29.23;21.73;;;;;;;20.76;70.61;101170.69;5029871;28;20044;-73
2022/06/27 10:42:50;;;;;;;32.15;21.88;;;;;;;20.78;70.65;101163.03;5024105;28;20090;-73
2022/06/27 10:45:26;;;;;;;34.80;20.95;;;;;;;21.31;69.02;101151.75;5025547;28;20017;-73
2022/06/27 10:47:55;;;;;;;29.48;21.25;;;;;;;21.33;68.49;101160.66;5019821;28;20450;-73
2022/06/27 10:50:22;;;;;;;34.10;21.80;;;;;;;21.68;68.17;101176.72;5028340;28;20043;-73
2022/06/27 10:52:49;;;;;;;28.30;19.05;;;;;;;21.55;68.28;101174.06;5038296;28;20017;-76
2022/06/27 10:55:24;;;;;;;31.50;21.38;;;;;;;21.04;70.80;101172.22;5030739;28;20021;-72
2022/06/27 10:57:52;;;;;;;25.05;18.02;;;;;;;21.79;67.80;101164.97;5035843;28;20032;-74
2022/06/27 11:00:40;;;;;;;27.45;17.90;;;;;;;22.31;66.06;101161.97;5023887;28;20013;-73
2022/06/27 11:03:08;;;;;;;30.38;18.42;;;;;;;22.52;64.75;101163.41;5020116;28;20025;-73
2022/06/27 11:05:52;;;;;;;35.50;20.45;;;;;;;21.45;68.82;101163.53;5017722;28;20108;-73
2022/06/27 11:08:20;;;;;;;27.17;17.60;;;;;;;21.86;67.43;101160.25;5023616;28;20035;-72
2022/06/27 11:10:45;;;;;;;25.65;19.13;;;;;;;21.77;67.08;101156.06;5018598;28;20013;-73
2022/06/27 11:13:31;;;;;;;26.20;18.45;;;;;;;21.81;67.37;101162.81;5020468;28;20021;-73
2022/06/27 11:15:56;;;;;;;37.28;22.05;;;;;;;21.43;68.01;101164.81;5038527;28;20031;-72
2022/06/27 11:18:21;;;;;;;27.83;18.50;;;;;;;21.65;68.15;101163.41;5016609;28;20025;-72
2022/06/27 11:20:47;;;;;;;26.48;18.38;;;;;;;21.83;67.02;101160.69;5015392;28;20111;-73
2022/06/27 11:23:12;;;;;;;35.42;21.17;;;;;;;21.66;67.43;101170.59;5028414;28;20028;-73